首页
METAR-TAF:

METAR-TAF

机场 :

维捷布斯克, 白俄罗斯

纬度: 55-10N, 经度: 030-13E, 海拔: 176米

当前天气观测

该预报发布于11小时和1分钟前的16:00 UTC
风速8节,风向西北,有时为14节阵风
温度 14°C
湿度 36%
气压 1023 hPa
能见度10公里或以上
1500米以下无云,无积雨云

METAR: UMII 081600Z 32004G07MPS CAVOK 14/M01 Q1023 NOSIG

时间: 06:01 (03:01 UTC)

预报

该预报发布于13小时和1分钟前的14:00 UTC
预报有效从08日的 15点(UTC)到 08日的 24点(UTC)
风速10节,风向西转西北,有时为19节阵风
能见度10公里或以上
多云层高于2000英尺
短暂存在
从 08日的 15点(UTC)到 08日的 24点(UTC)
风速6节,风向西

TAF: UMII 081400Z 0815/0824 30005G10MPS 9999 BKN020 TEMPO 0815/0824 27003MPS

超过4000个机场的气象观测和天气预报(METAR&TAF报告)。

可查询的气象台以黄色和红色小点在地图上表示。

将鼠标移到小点上方,可查看气象台名称。

然后点击查看天气观测和预报。

如需切换地图:点击带黑十字的绿色按钮放大地图;点击带横线的绿色按钮缩小地图;或者点击绿色箭头查看邻近地区的地图。


METAR-TAF: